Flight Track Log - Related Links

Times and Time Zones

All times are in EDT time to prevent confusion due to time zone crossing. See the KAP927 flight status page for this flight to view local times or setup timezone preferences in your user account.

Time Position Orientation Groundspeed Altitude Reporting Facility
EDT Latitude Longitude Course Direction KTS MPH feet Rate Location/Type
Thu 07:08:00 AM 44.4853 -75.2511 148° Southeast 141 162 4,900  Level Boston Center
Thu 07:09:00 AM 44.4528 -75.2233 149° Southeast 134 154 5,500 600 Climbing Boston Center
Thu 07:10:00 AM 44.4219 -75.1986 150° Southeast 129 148 6,100 550 Climbing Boston Center
Thu 07:11:00 AM 44.3894 -75.1739 151° Southeast 129 148 6,600 550 Climbing Boston Center
Thu 07:12:00 AM 44.5222 -75.3231 149° Southeast  Level Estimated
Thu 07:12:00 AM 44.3567 -75.1406 144° Southeast 139 160 7,200  Level Boston Center
Thu 07:13:00 AM 44.4901 -75.2951 148° Southeast  Level FlightAware Approximate
Thu 07:13:00 AM 44.3219 -75.1128 150° Southeast 139 160 7,500  Level Boston Center
Thu 07:14:00 AM 44.2831 -75.0819 150° Southeast 147 169 7,600 45 Climbing Boston Center
Thu 07:15:12 AM 44.2422 -75.0483 149° Southeast 163 188 7,600  Level Boston Center
Thu 07:16:12 AM 44.1953 -75.0058 147° Southeast 169 194 7,600  Level Boston Center
Thu 07:17:12 AM 44.1564 -74.9722 148° Southeast 169 194 7,600  Level Boston Center
Thu 07:18:12 AM 44.1175 -74.9358 146° Southeast 164 189 7,600 -50 Level Boston Center
Thu 07:19:12 AM 44.0808 -74.9025 147° Southeast 164 189 7,500  Descending Boston Center
Thu 07:20:12 AM 44.0419 -74.8719 151° Southeast 164 189 7,600 50 Climbing Boston Center
Thu 07:21:12 AM 44.0050 -74.8389 147° Southeast 164 189 7,600  Level Boston Center
Thu 07:22:12 AM 43.9661 -74.8083 151° Southeast 164 189 7,600  Level Boston Center
Thu 07:23:12 AM 43.9272 -74.7750 148° Southeast 164 189 7,600  Level Boston Center
Thu 07:24:12 AM 43.8903 -74.7419 147° Southeast 164 189 7,600  Level Boston Center
Thu 07:25:12 AM 43.8492 -74.7117 152° Southeast 164 189 7,600  Level Boston Center
Thu 07:26:12 AM 43.8122 -74.6786 147° Southeast 164 189 7,600  Level Boston Center
Thu 07:27:12 AM 43.7733 -74.6425 146° Southeast 164 189 7,600  Level Boston Center
Thu 07:28:12 AM 43.7344 -74.6094 148° Southeast 164 189 7,600  Level Boston Center
Thu 07:29:12 AM 43.6956 -74.5767 149° Southeast 164 189 7,600  Level Boston Center
Thu 07:30:12 AM 43.6564 -74.5436 149° Southeast 164 189 7,600  Level Boston Center
Thu 07:31:12 AM 43.6175 -74.5136 151° Southeast 164 189 7,600  Level Boston Center
Thu 07:32:12 AM 43.5783 -74.4836 151° Southeast 164 189 7,600  Level Boston Center
Thu 07:33:12 AM 43.5394 -74.4478 146° Southeast 164 189 7,600  Level Boston Center
Thu 07:34:12 AM 43.5025 -74.4181 150° Southeast 164 189 7,600  Level Boston Center
Thu 07:35:12 AM 43.4633 -74.3853 149° Southeast 164 189 7,600  Level Boston Center
Thu 07:36:13 AM 43.4242 -74.3556 151° Southeast 164 189 7,600  Level Boston Center
Thu 07:36:45 AM 43.4017 -74.3375 150° Southeast 164 189 7,600  Level Boston Center
Thu 07:37:24 AM 43.3853 -74.3200 142° Southeast 164 189 7,600  Level Boston Center
Thu 07:38:04 AM 43.3522 -74.2961 152° Southeast 162 186 7,600  Level Boston Center
Thu 07:39:05 AM 43.3133 -74.2664 151° Southeast 164 189 7,600 -149 Level Boston Center
Thu 07:40:05 AM 43.2742 -74.2308 147° Southeast 166 191 7,300 -365 Descending Boston Center
Thu 07:41:00 AM 43.2328 -74.2042 155° Southeast 179 206 6,900 -495 Descending Boston Center
Thu 07:41:54 AM 43.1897 -74.1686 149° Southeast 187 215 6,400 -500 Descending Boston Center
Thu 07:42:24 AM 43.1692 -74.1481 144° Southeast 181 208 6,200 -537 Descending Boston Center
Thu 07:43:01 AM 43.1444 -74.1303 152° Southeast 185 213 5,800 -673 Descending Boston Center
Thu 07:44:02 AM 43.1011 -74.0950 149° Southeast 188 216 5,100 -561 Descending Boston Center
Thu 07:44:48 AM 43.0764 -74.0717 145° Southeast 181 208 4,800 -566 Descending Boston Center
Thu 07:45:48 AM 43.0189 -74.0247 149° Southeast 181 208 4,100 -700 Descending Boston Center
Thu 07:46:48 AM 42.9775 -73.9897 148° Southeast 181 208 3,400 -400 Descending Boston Center
Thu 07:47:48 AM 42.9342 -73.9544 149° Southeast 181 208 3,300 -150 Descending Boston Center
Thu 07:48:48 AM 42.8950 -73.9222 149° Southeast 176 203 3,100 -250 Descending Boston Center
Thu 07:49:48 AM 42.8622 -73.8933 147° Southeast 167 192 2,800 -467 Descending Boston Center
Thu 07:50:18 AM 42.8375 -73.8700 145° Southeast 180 207 2,400 -800 Descending Boston Center
Thu 07:51:18 AM 42.8067 -73.8269 134° Southeast 157 181 1,600 -843 Descending Boston Center
Thu 07:52:19 AM 42.7736 -73.8064 155° Southeast 104 120 700 -885 Descending Boston Center
Thu 07:54:00 AM 42.7491 -73.8020 160° South  Level Estimated
Thu 08:01:00 AM 42.7491 -73.8020 160° South  Level Estimated
Thu 08:02:00 AM 42.7491 -73.8020 160° South  Level Estimated
Thu 08:03:00 AM 42.7491 -73.8020 160° South  Level Estimated
Thu 08:04:00 AM 42.7491 -73.8020 160° South  Level Estimated

Login

Don't have an account? Register now (free) for customized features, flight alerts, and more!